Time;durP1;ratioP1;P1;durP2;ratioP2;P2;SDS_P1;SDS_P2;PMS_P1;PMS_P2;Temp;Humidity;BMP_temperature;BMP_pressure;BME280_temperature;BME280_humidity;BME280_pressure;Samples;Min_cycle;Max_cycle;Signal;HPM_P1;HPM_P2
2021/08/01 00:02:03;;;;;;;14.00;7.57;;;;;;;;;;6278561;22;20401;-84
2021/08/01 00:04:33;;;;;;;14.45;7.82;;;;;;;;;;6252098;22;20055;-84
2021/08/01 00:07:04;;;;;;;13.75;9.23;;;;;;;;;;6251835;22;20047;-84
2021/08/01 00:09:30;;;;;;;20.08;8.77;;;;;;;;;;6276740;22;20111;-84
2021/08/01 00:12:04;;;;;;;19.20;9.52;;;;;;;;;;6251271;22;20027;-84
2021/08/01 00:14:33;;;;;;;16.45;9.13;;;;;;;;;;6279850;22;20099;-85
2021/08/01 00:17:04;;;;;;;17.98;9.38;;;;;;;;;;6280493;22;20127;-84
2021/08/01 00:19:31;;;;;;;20.65;10.25;;;;;;;;;;6253474;22;20030;-85
2021/08/01 00:21:57;;;;;;;19.42;10.43;;;;;;;;;;6251212;22;20223;-84
2021/08/01 00:24:24;;;;;;;18.35;10.15;;;;;;;;;;6278290;22;20077;-84
2021/08/01 00:26:51;;;;;;;18.77;11.13;;;;;;;;;;6279673;22;20020;-84
2021/08/01 00:29:17;;;;;;;22.08;10.63;;;;;;;;;;6283040;22;20313;-84
2021/08/01 00:31:44;;;;;;;15.52;10.23;;;;;;;;;;6268536;22;20011;-84
2021/08/01 00:34:10;;;;;;;19.05;10.55;;;;;;;;;;6297257;22;20020;-85
2021/08/01 00:36:39;;;;;;;17.73;11.57;;;;;;;;;;6282637;22;20028;-85
2021/08/01 00:39:06;;;;;;;17.88;10.55;;;;;;;;;;6253530;22;20050;-85
2021/08/01 00:41:33;;;;;;;22.60;11.05;;;;;;;;;;6281019;22;20020;-85
2021/08/01 00:43:59;;;;;;;21.60;11.68;;;;;;;;;;6253692;22;20023;-84
2021/08/01 00:46:26;;;;;;;20.27;11.93;;;;;;;;;;6280470;22;20051;-84
2021/08/01 00:48:53;;;;;;;21.08;11.27;;;;;;;;;;6277616;22;20050;-85
2021/08/01 00:51:21;;;;;;;19.70;11.57;;;;;;;;;;6251652;22;20034;-85
2021/08/01 00:53:48;;;;;;;20.50;12.98;;;;;;;;;;6251288;22;20074;-85
2021/08/01 00:56:17;;;;;;;22.35;12.65;;;;;;;;;;6250391;22;20027;-85
2021/08/01 00:58:47;;;;;;;27.15;13.05;;;;;;;;;;6252994;22;20020;-84
2021/08/01 01:01:18;;;;;;;19.25;11.35;;;;;;;;;;6275772;22;20030;-85
2021/08/01 01:04:12;;;;;;;15.55;11.02;;;;;;;;;;6251094;22;20082;-85
2021/08/01 01:06:50;;;;;;;21.38;11.70;;;;;;;;;;6205499;22;20028;-84
2021/08/01 01:09:20;;;;;;;20.90;13.32;;;;;;;;;;6250909;22;20063;-85
2021/08/01 01:11:47;;;;;;;23.67;12.77;;;;;;;;;;6250346;22;20030;-84
2021/08/01 01:14:16;;;;;;;18.75;12.38;;;;;;;;;;6252244;22;20027;-84
2021/08/01 01:16:50;;;;;;;22.02;13.00;;;;;;;;;;6278869;22;20058;-84
2021/08/01 01:19:20;;;;;;;21.42;13.57;;;;;;;;;;6276686;22;20108;-84
2021/08/01 01:21:51;;;;;;;21.40;12.40;;;;;;;;;;6252341;22;20074;-84
2021/08/01 01:24:30;;;;;;;20.10;12.13;;;;;;;;;;6278719;22;20016;-84
2021/08/01 01:26:56;;;;;;;23.52;12.45;;;;;;;;;;6250242;22;20115;-84
2021/08/01 01:29:49;;;;;;;18.92;12.10;;;;;;;;;;6250588;22;20063;-84
2021/08/01 01:32:35;;;;;;;16.08;11.40;;;;;;;;;;6246795;22;20274;-83
2021/08/01 01:35:11;;;;;;;19.83;12.35;;;;;;;;;;6280281;22;20043;-83
2021/08/01 01:37:38;;;;;;;26.67;11.50;;;;;;;;;;6256399;22;20079;-83
2021/08/01 01:40:06;;;;;;;19.50;12.32;;;;;;;;;;6272675;22;20022;-83
2021/08/01 01:42:34;;;;;;;15.25;11.48;;;;;;;;;;6299150;22;20023;-83
2021/08/01 01:45:02;;;;;;;22.15;12.85;;;;;;;;;;6299666;22;20067;-84
2021/08/01 01:47:30;;;;;;;21.05;12.93;;;;;;;;;;6298983;22;20084;-84
2021/08/01 01:49:58;;;;;;;21.13;12.85;;;;;;;;;;6295446;22;20106;-84
2021/08/01 01:52:25;;;;;;;18.20;12.60;;;;;;;;;;6284052;22;20051;-84
2021/08/01 01:54:52;;;;;;;17.85;10.85;;;;;;;;;;6256716;22;20032;-84
2021/08/01 01:57:24;;;;;;;19.00;11.73;;;;;;;;;;6284042;22;20062;-85
2021/08/01 01:59:51;;;;;;;29.73;12.40;;;;;;;;;;6294167;22;20028;-84
2021/08/01 02:02:18;;;;;;;26.10;12.02;;;;;;;;;;6265134;22;20094;-85
2021/08/01 02:04:45;;;;;;;18.38;12.00;;;;;;;;;;6289586;22;20079;-85
2021/08/01 02:07:30;;;;;;;20.05;12.25;;;;;;;;;;6275611;22;20114;-84
2021/08/01 02:10:00;;;;;;;19.52;10.95;;;;;;;;;;6274944;22;20023;-85
2021/08/01 02:12:27;;;;;;;18.42;11.45;;;;;;;;;;6300539;22;20020;-84
2021/08/01 02:15:00;;;;;;;16.23;12.65;;;;;;;;;;6273061;22;20075;-84
2021/08/01 02:17:50;;;;;;;18.02;12.02;;;;;;;;;;6273832;22;20102;-85
2021/08/01 02:20:19;;;;;;;22.95;12.95;;;;;;;;;;6246456;22;20146;-85
2021/08/01 02:22:45;;;;;;;16.45;12.27;;;;;;;;;;6256718;22;20036;-85
2021/08/01 02:25:13;;;;;;;19.08;12.50;;;;;;;;;;6288846;22;20015;-85
2021/08/01 02:27:41;;;;;;;20.33;12.40;;;;;;;;;;6299063;22;20126;-84
2021/08/01 02:30:07;;;;;;;30.63;13.75;;;;;;;;;;6285083;22;20023;-84
2021/08/01 02:32:34;;;;;;;18.85;13.07;;;;;;;;;;6271964;22;20032;-85
2021/08/01 02:35:02;;;;;;;20.02;13.63;;;;;;;;;;6250124;23;20024;-84
2021/08/01 02:37:30;;;;;;;21.35;13.57;;;;;;;;;;6223056;23;20038;-85
2021/08/01 02:39:59;;;;;;;23.63;13.95;;;;;;;;;;6223633;23;20130;-85
2021/08/01 02:42:25;;;;;;;22.15;12.90;;;;;;;;;;6250857;23;20120;-85
2021/08/01 02:44:55;;;;;;;18.90;13.52;;;;;;;;;;6249058;23;20030;-85
2021/08/01 02:47:22;;;;;;;20.38;13.68;;;;;;;;;;6223976;23;20082;-85
2021/08/01 02:49:49;;;;;;;22.88;13.45;;;;;;;;;;6248316;23;20024;-85
2021/08/01 02:52:23;;;;;;;23.83;13.40;;;;;;;;;;6222968;23;20028;-85
2021/08/01 02:54:50;;;;;;;21.02;14.05;;;;;;;;;;6249192;23;20103;-85
2021/08/01 02:57:25;;;;;;;30.75;14.50;;;;;;;;;;6224147;23;20346;-85
2021/08/01 02:59:55;;;;;;;27.88;15.52;;;;;;;;;;6251517;23;20080;-85
2021/08/01 03:02:25;;;;;;;24.85;16.17;;;;;;;;;;6225318;23;20484;-85
2021/08/01 03:04:52;;;;;;;28.83;15.43;;;;;;;;;;6251212;23;20028;-85
2021/08/01 03:07:22;;;;;;;20.63;14.75;;;;;;;;;;6250305;23;20032;-85
2021/08/01 03:09:55;;;;;;;22.67;15.52;;;;;;;;;;6250220;23;20027;-85
2021/08/01 03:12:22;;;;;;;24.65;15.23;;;;;;;;;;6224048;23;20106;-85
2021/08/01 03:14:54;;;;;;;23.40;15.10;;;;;;;;;;6223856;23;20152;-84
2021/08/01 03:17:33;;;;;;;20.20;14.52;;;;;;;;;;6223936;23;20055;-84
2021/08/01 03:20:00;;;;;;;23.30;15.88;;;;;;;;;;6223260;23;20298;-84
2021/08/01 03:22:27;;;;;;;26.45;15.70;;;;;;;;;;6224505;23;20028;-84
2021/08/01 03:24:57;;;;;;;26.05;16.30;;;;;;;;;;6250774;23;20036;-84
2021/08/01 03:27:23;;;;;;;23.52;15.18;;;;;;;;;;6226168;23;20024;-84
2021/08/01 03:29:50;;;;;;;22.48;15.95;;;;;;;;;;6225384;23;20039;-84
2021/08/01 03:32:17;;;;;;;22.85;16.08;;;;;;;;;;6231145;22;20050;-84
2021/08/01 03:34:45;;;;;;;27.85;15.90;;;;;;;;;;6255032;22;20028;-84
2021/08/01 03:37:11;;;;;;;25.75;16.55;;;;;;;;;;6255034;22;20071;-83
2021/08/01 03:39:38;;;;;;;28.58;16.27;;;;;;;;;;6283004;22;20024;-83
2021/08/01 03:42:05;;;;;;;23.30;16.63;;;;;;;;;;6282945;22;20107;-83
2021/08/01 03:44:32;;;;;;;28.42;15.60;;;;;;;;;;6282973;22;20270;-83
2021/08/01 03:46:58;;;;;;;29.92;16.52;;;;;;;;;;6266776;22;20025;-83
2021/08/01 03:49:26;;;;;;;28.33;17.33;;;;;;;;;;6274817;22;20080;-84
2021/08/01 03:51:52;;;;;;;30.88;17.63;;;;;;;;;;6291986;22;20028;-83
2021/08/01 03:54:19;;;;;;;25.83;16.88;;;;;;;;;;6282255;22;20071;-83
2021/08/01 03:56:46;;;;;;;25.23;17.35;;;;;;;;;;6254072;22;20027;-83
2021/08/01 03:59:13;;;;;;;23.88;16.25;;;;;;;;;;6281428;22;20023;-83
2021/08/01 04:01:40;;;;;;;26.58;17.48;;;;;;;;;;6252774;22;20047;-83
2021/08/01 04:04:07;;;;;;;26.70;16.80;;;;;;;;;;6252920;22;20042;-83
2021/08/01 04:06:34;;;;;;;34.10;18.17;;;;;;;;;;6279283;22;20028;-83
2021/08/01 04:09:04;;;;;;;28.98;16.40;;;;;;;;;;6252599;22;20024;-83
2021/08/01 04:11:34;;;;;;;26.13;16.55;;;;;;;;;;6278485;22;20024;-83
2021/08/01 04:14:01;;;;;;;24.83;16.55;;;;;;;;;;6251353;22;20062;-83
2021/08/01 04:16:28;;;;;;;28.13;17.60;;;;;;;;;;6252747;22;20320;-83
2021/08/01 04:18:55;;;;;;;26.20;16.88;;;;;;;;;;6254665;22;20023;-83
2021/08/01 04:21:22;;;;;;;27.38;17.95;;;;;;;;;;6281709;22;20051;-83
2021/08/01 04:23:48;;;;;;;27.60;17.65;;;;;;;;;;6279627;22;20024;-83
2021/08/01 04:26:18;;;;;;;26.02;17.48;;;;;;;;;;6244196;22;20023;-83
2021/08/01 04:28:50;;;;;;;27.90;16.27;;;;;;;;;;6280975;22;20363;-83
2021/08/01 04:31:17;;;;;;;27.02;16.75;;;;;;;;;;6253493;22;20030;-83
2021/08/01 04:33:44;;;;;;;29.52;18.33;;;;;;;;;;6252784;22;20321;-83
2021/08/01 04:36:18;;;;;;;25.45;16.58;;;;;;;;;;6281691;22;20057;-83
2021/08/01 04:38:45;;;;;;;25.10;16.58;;;;;;;;;;6254769;22;20094;-83
2021/08/01 04:41:14;;;;;;;27.33;15.85;;;;;;;;;;6268710;22;20433;-85
2021/08/01 04:43:41;;;;;;;23.23;15.05;;;;;;;;;;6254330;22;20024;-83
2021/08/01 04:46:09;;;;;;;26.95;16.92;;;;;;;;;;6254368;22;20031;-83
2021/08/01 04:48:38;;;;;;;24.48;14.82;;;;;;;;;;6255481;22;20082;-84
2021/08/01 04:51:11;;;;;;;22.38;15.88;;;;;;;;;;6280700;22;20238;-84
2021/08/01 04:53:38;;;;;;;26.45;16.67;;;;;;;;;;6254013;22;20042;-84
2021/08/01 04:56:14;;;;;;;25.15;14.63;;;;;;;;;;6253776;22;20027;-84
2021/08/01 04:58:41;;;;;;;24.17;15.43;;;;;;;;;;6254416;22;20042;-84
2021/08/01 05:01:14;;;;;;;21.98;13.93;;;;;;;;;;6253622;22;20054;-84
2021/08/01 05:03:43;;;;;;;20.15;13.20;;;;;;;;;;6256785;22;20051;-83
2021/08/01 05:06:11;;;;;;;20.63;12.73;;;;;;;;;;6258744;22;20028;-83
2021/08/01 05:08:38;;;;;;;20.60;13.20;;;;;;;;;;6256662;22;20034;-84
2021/08/01 05:11:06;;;;;;;19.48;12.75;;;;;;;;;;6282939;22;20098;-84
2021/08/01 05:13:32;;;;;;;19.80;12.63;;;;;;;;;;6292858;22;20026;-84
2021/08/01 05:16:02;;;;;;;17.70;13.05;;;;;;;;;;6301855;22;20079;-85
2021/08/01 05:18:30;;;;;;;22.75;14.27;;;;;;;;;;6264669;22;20446;-84
2021/08/01 05:20:57;;;;;;;23.83;14.77;;;;;;;;;;6281679;22;20023;-84
2021/08/01 05:23:24;;;;;;;19.67;14.02;;;;;;;;;;6255559;22;20028;-84
2021/08/01 05:25:51;;;;;;;23.33;14.45;;;;;;;;;;6272902;22;20028;-84
2021/08/01 05:28:20;;;;;;;22.73;14.55;;;;;;;;;;6287161;22;20023;-83
2021/08/01 05:30:52;;;;;;;22.60;14.27;;;;;;;;;;6257123;22;20035;-85
2021/08/01 05:33:20;;;;;;;21.50;14.95;;;;;;;;;;6255948;22;20035;-82
2021/08/01 05:35:47;;;;;;;24.63;14.98;;;;;;;;;;6255930;22;20101;-83
2021/08/01 05:38:14;;;;;;;21.65;16.15;;;;;;;;;;6282366;22;20027;-82
2021/08/01 05:40:42;;;;;;;23.55;16.17;;;;;;;;;;6285296;22;20032;-84
2021/08/01 05:43:09;;;;;;;27.05;16.63;;;;;;;;;;6256783;22;20055;-84
2021/08/01 05:45:36;;;;;;;24.88;17.48;;;;;;;;;;6255543;22;20038;-84
2021/08/01 05:48:03;;;;;;;29.27;18.23;;;;;;;;;;6253670;22;20027;-84
2021/08/01 05:50:30;;;;;;;23.38;16.42;;;;;;;;;;6253304;22;20120;-85
2021/08/01 05:52:56;;;;;;;26.30;17.63;;;;;;;;;;6278514;22;20062;-84
2021/08/01 05:55:25;;;;;;;30.42;19.02;;;;;;;;;;6254794;22;20027;-84
2021/08/01 05:57:52;;;;;;;31.60;19.83;;;;;;;;;;6254889;22;20102;-84
2021/08/01 06:00:20;;;;;;;30.90;20.35;;;;;;;;;;6255449;22;20042;-84
2021/08/01 06:02:47;;;;;;;30.38;21.33;;;;;;;;;;6280372;22;20066;-84
2021/08/01 06:05:23;;;;;;;31.90;21.63;;;;;;;;;;6253741;22;20084;-85
2021/08/01 06:07:50;;;;;;;42.75;22.92;;;;;;;;;;6255802;22;20031;-83
2021/08/01 06:10:19;;;;;;;33.83;22.20;;;;;;;;;;6255494;22;20031;-84
2021/08/01 06:12:45;;;;;;;33.00;22.48;;;;;;;;;;6252613;22;20024;-84
2021/08/01 06:15:13;;;;;;;35.30;24.13;;;;;;;;;;6255229;22;20083;-84
2021/08/01 06:17:42;;;;;;;33.53;24.48;;;;;;;;;;6254768;22;20236;-84
2021/08/01 06:20:11;;;;;;;37.47;24.63;;;;;;;;;;6255309;22;20077;-84
2021/08/01 06:22:44;;;;;;;33.33;23.48;;;;;;;;;;6254100;22;20028;-84
2021/08/01 06:25:12;;;;;;;32.83;22.42;;;;;;;;;;6252402;22;20020;-84
2021/08/01 06:27:39;;;;;;;34.83;23.23;;;;;;;;;;6281928;22;20235;-83
2021/08/01 06:30:19;;;;;;;32.88;22.77;;;;;;;;;;6254750;22;20030;-84
2021/08/01 06:32:46;;;;;;;31.42;22.20;;;;;;;;;;6269033;22;20024;-84
2021/08/01 06:35:13;;;;;;;32.83;20.63;;;;;;;;;;6223675;23;20042;-84
2021/08/01 06:37:43;;;;;;;33.97;21.42;;;;;;;;;;6225443;23;20424;-84
2021/08/01 06:40:10;;;;;;;34.50;21.75;;;;;;;;;;6250833;23;20291;-84
2021/08/01 06:42:38;;;;;;;33.55;21.40;;;;;;;;;;6251757;23;20087;-84
2021/08/01 06:45:06;;;;;;;36.55;21.85;;;;;;;;;;6224952;23;20038;-83
2021/08/01 06:47:33;;;;;;;29.20;21.35;;;;;;;;;;6223448;23;20020;-84
2021/08/01 06:50:01;;;;;;;34.60;21.58;;;;;;;;;;6221559;23;20180;-84
2021/08/01 06:52:37;;;;;;;30.57;20.90;;;;;;;;;;6224949;23;20031;-84
2021/08/01 06:55:05;;;;;;;28.33;19.75;;;;;;;;;;6251528;23;20427;-84
2021/08/01 06:57:33;;;;;;;34.47;20.95;;;;;;;;;;6224119;23;20039;-83
2021/08/01 07:00:10;;;;;;;30.85;20.48;;;;;;;;;;6255983;23;20086;-84
2021/08/01 07:02:36;;;;;;;28.58;20.30;;;;;;;;;;6225620;23;20024;-85
2021/08/01 07:05:04;;;;;;;30.40;20.50;;;;;;;;;;6267970;22;20035;-84
2021/08/01 07:07:31;;;;;;;32.47;21.52;;;;;;;;;;6240652;23;20035;-84
2021/08/01 07:10:02;;;;;;;31.15;19.33;;;;;;;;;;6249480;23;20024;-84
2021/08/01 07:12:29;;;;;;;27.55;19.25;;;;;;;;;;6222121;23;20395;-84
2021/08/01 07:14:55;;;;;;;27.40;19.13;;;;;;;;;;6258428;23;20028;-84
2021/08/01 07:17:23;;;;;;;26.83;16.55;;;;;;;;;;6257492;23;20059;-84
2021/08/01 07:19:50;;;;;;;26.98;17.70;;;;;;;;;;6225505;23;20035;-85
2021/08/01 07:22:17;;;;;;;26.02;17.13;;;;;;;;;;6221180;23;20035;-85
2021/08/01 07:24:44;;;;;;;24.55;17.55;;;;;;;;;;6249207;23;20020;-84
2021/08/01 07:27:11;;;;;;;25.60;16.80;;;;;;;;;;6248487;23;20059;-85
2021/08/01 07:29:38;;;;;;;24.42;15.80;;;;;;;;;;6247516;23;20035;-85
2021/08/01 07:32:05;;;;;;;26.00;17.58;;;;;;;;;;6251290;22;20094;-84
2021/08/01 07:34:33;;;;;;;25.70;17.73;;;;;;;;;;6276888;22;20449;-85
2021/08/01 07:37:00;;;;;;;23.77;17.27;;;;;;;;;;6251646;22;20032;-85
2021/08/01 07:39:27;;;;;;;27.70;18.70;;;;;;;;;;6250751;22;20027;-84
2021/08/01 07:41:53;;;;;;;23.88;17.88;;;;;;;;;;6249956;22;20024;-84
2021/08/01 07:44:20;;;;;;;29.48;19.50;;;;;;;;;;6278322;22;20047;-85
2021/08/01 07:46:48;;;;;;;26.98;17.95;;;;;;;;;;6277098;22;20412;-85
2021/08/01 07:49:15;;;;;;;28.17;19.15;;;;;;;;;;6277093;22;20289;-85
2021/08/01 07:51:42;;;;;;;27.52;19.00;;;;;;;;;;6278003;22;20226;-83
2021/08/01 07:54:09;;;;;;;22.40;17.00;;;;;;;;;;6253379;22;20029;-83
2021/08/01 07:56:36;;;;;;;28.58;18.55;;;;;;;;;;6280359;22;20023;-84
2021/08/01 07:59:05;;;;;;;32.70;17.90;;;;;;;;;;6253324;22;20443;-83
2021/08/01 08:01:32;;;;;;;25.88;17.35;;;;;;;;;;6251646;22;20030;-84
2021/08/01 08:04:00;;;;;;;28.05;18.55;;;;;;;;;;6278696;22;20177;-84
2021/08/01 08:06:27;;;;;;;28.60;18.83;;;;;;;;;;6252616;22;20031;-84
2021/08/01 08:08:54;;;;;;;26.77;19.55;;;;;;;;;;6277940;22;20544;-83
2021/08/01 08:11:21;;;;;;;30.38;21.40;;;;;;;;;;6250221;22;20352;-83
2021/08/01 08:13:48;;;;;;;25.33;18.20;;;;;;;;;;6262084;22;20026;-84
2021/08/01 08:16:18;;;;;;;30.88;18.27;;;;;;;;;;6283497;22;20024;-84
2021/08/01 08:18:50;;;;;;;28.60;20.00;;;;;;;;;;6259403;22;20079;-83
2021/08/01 08:21:18;;;;;;;30.58;21.50;;;;;;;;;;6250972;22;20057;-83
2021/08/01 08:23:44;;;;;;;28.88;20.08;;;;;;;;;;6256063;22;20067;-84
2021/08/01 08:26:15;;;;;;;29.35;19.88;;;;;;;;;;6269958;22;20015;-83
2021/08/01 08:28:42;;;;;;;30.08;22.02;;;;;;;;;;6267389;22;20023;-83
2021/08/01 08:31:09;;;;;;;33.85;21.83;;;;;;;;;;6294067;22;20024;-83
2021/08/01 08:33:37;;;;;;;40.58;24.42;;;;;;;;;;6291997;22;20043;-83
2021/08/01 08:36:04;;;;;;;38.30;26.05;;;;;;;;;;6291335;22;20027;-83
2021/08/01 08:38:31;;;;;;;33.22;23.52;;;;;;;;;;6278301;22;20027;-84
2021/08/01 08:40:57;;;;;;;37.25;24.35;;;;;;;;;;6280300;22;20028;-84
2021/08/01 08:43:24;;;;;;;34.65;24.15;;;;;;;;;;6249750;22;20058;-83
2021/08/01 08:45:55;;;;;;;28.05;21.85;;;;;;;;;;6248586;22;20052;-83
2021/08/01 08:48:22;;;;;;;29.40;20.70;;;;;;;;;;6249685;22;20197;-84
2021/08/01 08:50:49;;;;;;;28.95;19.92;;;;;;;;;;6277123;22;20100;-84
2021/08/01 08:53:19;;;;;;;27.00;18.45;;;;;;;;;;6275270;22;20028;-83
2021/08/01 08:55:52;;;;;;;27.48;19.40;;;;;;;;;;6248544;22;20030;-83
2021/08/01 08:58:25;;;;;;;29.10;19.65;;;;;;;;;;6250643;22;20115;-83
2021/08/01 09:00:52;;;;;;;25.58;19.23;;;;;;;;;;6252458;22;20095;-84
2021/08/01 09:03:29;;;;;;;25.95;18.85;;;;;;;;;;6273044;22;20139;-84
2021/08/01 09:05:59;;;;;;;30.95;21.42;;;;;;;;;;6255531;22;20027;-83
2021/08/01 09:08:26;;;;;;;23.70;17.58;;;;;;;;;;6253317;22;20054;-84
2021/08/01 09:10:53;;;;;;;27.92;18.58;;;;;;;;;;6267810;22;20047;-84
2021/08/01 09:13:39;;;;;;;23.23;17.08;;;;;;;;;;6267933;22;20007;-85
2021/08/01 09:16:05;;;;;;;22.55;16.23;;;;;;;;;;6266817;22;20059;-83
2021/08/01 09:18:32;;;;;;;26.35;19.15;;;;;;;;;;6268037;22;20028;-83
2021/08/01 09:20:59;;;;;;;18.48;13.98;;;;;;;;;;6259921;22;20028;-82
2021/08/01 09:23:26;;;;;;;25.80;18.20;;;;;;;;;;6277818;22;20035;-83
2021/08/01 09:25:56;;;;;;;24.92;18.25;;;;;;;;;;6289145;22;20024;-84
2021/08/01 09:28:24;;;;;;;26.13;17.65;;;;;;;;;;6275532;22;20024;-83
2021/08/01 09:31:01;;;;;;;26.95;20.77;;;;;;;;;;6276852;22;20441;-83
2021/08/01 09:33:38;;;;;;;26.45;20.30;;;;;;;;;;6272430;22;20081;-79
2021/08/01 09:36:12;;;;;;;25.60;19.70;;;;;;;;;;6249515;22;20028;-81
2021/08/01 09:38:43;;;;;;;23.58;19.67;;;;;;;;;;6262021;22;20344;-81
2021/08/01 09:41:10;;;;;;;24.88;18.13;;;;;;;;;;6292255;22;20071;-81
2021/08/01 09:43:46;;;;;;;24.65;18.98;;;;;;;;;;6292597;22;20030;-81
2021/08/01 09:46:16;;;;;;;24.60;18.17;;;;;;;;;;6254599;22;20032;-82
2021/08/01 09:48:42;;;;;;;24.63;18.77;;;;;;;;;;6254385;22;20020;-82
2021/08/01 09:51:10;;;;;;;29.42;16.70;;;;;;;;;;6280535;22;20066;-82
2021/08/01 09:53:39;;;;;;;27.98;19.83;;;;;;;;;;6251444;22;20062;-82
2021/08/01 09:56:08;;;;;;;28.33;19.75;;;;;;;;;;6249940;22;20536;-83
2021/08/01 09:58:36;;;;;;;23.58;19.73;;;;;;;;;;6251005;22;20024;-83
2021/08/01 10:01:03;;;;;;;21.50;16.75;;;;;;;;;;6275613;22;20032;-82
2021/08/01 10:03:37;;;;;;;23.15;15.73;;;;;;;;;;6249045;22;20279;-83
2021/08/01 10:06:06;;;;;;;11.70;9.93;;;;;;;;;;6251315;22;20020;-83
2021/08/01 10:08:40;;;;;;;8.90;7.30;;;;;;;;;;6276413;22;20020;-84
2021/08/01 10:11:08;;;;;;;10.50;7.60;;;;;;;;;;6249281;22;20051;-84
2021/08/01 10:13:36;;;;;;;9.27;7.07;;;;;;;;;;6247449;22;20027;-84
2021/08/01 10:16:03;;;;;;;10.32;6.70;;;;;;;;;;6249005;22;20034;-84
2021/08/01 10:18:30;;;;;;;10.82;6.60;;;;;;;;;;6247273;22;20023;-84
2021/08/01 10:20:57;;;;;;;9.05;5.88;;;;;;;;;;6285366;22;20079;-84
2021/08/01 10:23:25;;;;;;;8.48;5.07;;;;;;;;;;6266009;22;20023;-85
2021/08/01 10:25:52;;;;;;;8.88;5.78;;;;;;;;;;6259504;22;20058;-85
2021/08/01 10:28:30;;;;;;;6.35;4.88;;;;;;;;;;6251411;22;20431;-85
2021/08/01 10:30:59;;;;;;;9.10;4.60;;;;;;;;;;6249274;22;20219;-85
2021/08/01 10:33:26;;;;;;;6.43;4.78;;;;;;;;;;6276248;22;20034;-85
2021/08/01 10:35:58;;;;;;;9.48;5.15;;;;;;;;;;6251329;22;20089;-85
2021/08/01 10:38:25;;;;;;;8.60;5.35;;;;;;;;;;6247782;22;20461;-85
2021/08/01 10:40:58;;;;;;;7.95;5.55;;;;;;;;;;6251114;22;20333;-85
2021/08/01 10:43:29;;;;;;;7.75;5.00;;;;;;;;;;6248200;22;20075;-85
2021/08/01 10:45:56;;;;;;;7.00;4.95;;;;;;;;;;6247018;22;20538;-85
2021/08/01 10:48:24;;;;;;;10.38;4.80;;;;;;;;;;6278121;22;20126;-85
2021/08/01 10:50:51;;;;;;;13.20;8.50;;;;;;;;;;6252316;22;20024;-84
2021/08/01 10:53:26;;;;;;;12.80;8.65;;;;;;;;;;6248722;22;20071;-85
2021/08/01 10:56:07;;;;;;;23.23;12.43;;;;;;;;;;6271741;22;20433;-85
2021/08/01 10:58:36;;;;;;;22.88;12.02;;;;;;;;;;6250863;22;20114;-85
2021/08/01 11:01:09;;;;;;;15.73;10.48;;;;;;;;;;6275519;22;20028;-84
2021/08/01 11:03:39;;;;;;;17.58;10.95;;;;;;;;;;6250534;22;20106;-85
2021/08/01 11:06:34;;;;;;;14.02;9.90;;;;;;;;;;6239003;22;20459;-85
2021/08/01 11:09:09;;;;;;;12.52;10.55;;;;;;;;;;6274111;22;20510;-84
2021/08/01 11:11:38;;;;;;;20.02;10.80;;;;;;;;;;6249557;22;20034;-84
2021/08/01 11:14:31;;;;;;;9.75;7.43;;;;;;;;;;6267559;22;20075;-85
2021/08/01 11:16:58;;;;;;;7.63;5.00;;;;;;;;;;6268639;22;20027;-84
2021/08/01 11:19:33;;;;;;;8.20;5.03;;;;;;;;;;6249585;22;20252;-83
2021/08/01 11:22:03;;;;;;;9.13;5.22;;;;;;;;;;6274028;22;20349;-84
2021/08/01 11:24:30;;;;;;;9.52;4.93;;;;;;;;;;6284234;22;20240;-83
2021/08/01 11:27:06;;;;;;;4.85;3.78;;;;;;;;;;6249065;22;20048;-83
2021/08/01 11:29:53;;;;;;;9.02;3.65;;;;;;;;;;6271647;22;20221;-83
2021/08/01 11:32:19;;;;;;;11.25;4.30;;;;;;;;;;6260942;22;20170;-83
2021/08/01 11:35:09;;;;;;;8.10;4.13;;;;;;;;;;6272945;22;20035;-83
2021/08/01 11:38:06;;;;;;;6.72;3.30;;;;;;;;;;6229496;22;20262;-83
2021/08/01 11:40:43;;;;;;;5.97;2.47;;;;;;;;;;6272957;22;20070;-82
2021/08/01 11:43:10;;;;;;;6.60;2.20;;;;;;;;;;6243213;22;20090;-81
2021/08/01 11:46:00;;;;;;;3.50;2.03;;;;;;;;;;6243686;22;20091;-80
2021/08/01 11:48:36;;;;;;;1.77;1.60;;;;;;;;;;6223332;22;20055;-81
2021/08/01 11:51:06;;;;;;;3.53;2.55;;;;;;;;;;6271516;22;20321;-81
2021/08/01 11:53:33;;;;;;;5.57;2.80;;;;;;;;;;6270612;22;20517;-81
2021/08/01 11:56:10;;;;;;;5.57;4.13;;;;;;;;;;6244210;22;20027;-81
2021/08/01 11:58:37;;;;;;;5.65;3.83;;;;;;;;;;6243017;22;20023;-82
2021/08/01 12:01:06;;;;;;;7.38;3.95;;;;;;;;;;6245350;22;20050;-81
2021/08/01 12:03:34;;;;;;;6.75;4.82;;;;;;;;;;6269345;22;20401;-82
2021/08/01 12:06:04;;;;;;;9.90;5.47;;;;;;;;;;6241855;22;20151;-81
2021/08/01 12:08:36;;;;;;;6.82;5.50;;;;;;;;;;6243769;22;20023;-83
2021/08/01 12:11:13;;;;;;;8.70;5.72;;;;;;;;;;6247968;22;20030;-82
2021/08/01 12:14:09;;;;;;;8.27;6.22;;;;;;;;;;6250831;22;20416;-82
2021/08/01 12:16:36;;;;;;;7.22;6.15;;;;;;;;;;6226571;22;20038;-83
2021/08/01 12:19:15;;;;;;;7.82;6.20;;;;;;;;;;6246130;22;20059;-82
2021/08/01 12:21:42;;;;;;;;;;;;;;;;;;6278608;22;20035;-82
2021/08/01 12:24:27;;;;;;;4.90;3.70;;;;;;;;;;6274397;22;19915;-84
2021/08/01 12:26:58;;;;;;;3.53;2.20;;;;;;;;;;6274885;22;20027;-84
2021/08/01 12:29:29;;;;;;;3.53;1.98;;;;;;;;;;6272704;22;20024;-85
2021/08/01 12:31:56;;;;;;;5.35;1.75;;;;;;;;;;6275989;22;20099;-83
2021/08/01 12:34:23;;;;;;;3.95;1.50;;;;;;;;;;6248781;22;20027;-83
2021/08/01 12:36:50;;;;;;;5.45;2.30;;;;;;;;;;6249395;22;20337;-82
2021/08/01 12:39:18;;;;;;;4.53;1.48;;;;;;;;;;6249792;22;20027;-82
2021/08/01 12:41:45;;;;;;;4.22;1.60;;;;;;;;;;6274955;22;20298;-82
2021/08/01 12:44:15;;;;;;;2.60;1.60;;;;;;;;;;6250455;22;20063;-82
2021/08/01 12:46:42;;;;;;;3.35;1.23;;;;;;;;;;6250246;22;20115;-82
2021/08/01 12:49:09;;;;;;;1.80;1.30;;;;;;;;;;6263119;22;20071;-81
2021/08/01 12:51:42;;;;;;;1.33;1.10;;;;;;;;;;6294369;22;20050;-82
2021/08/01 12:54:10;;;;;;;3.10;1.10;;;;;;;;;;6296177;22;20032;-82
2021/08/01 12:56:37;;;;;;;1.73;0.90;;;;;;;;;;6266339;22;20078;-82
2021/08/01 12:59:10;;;;;;;1.55;1.40;;;;;;;;;;6293624;22;20028;-82
2021/08/01 13:01:42;;;;;;;1.23;1.13;;;;;;;;;;6281758;22;20020;-82
2021/08/01 13:04:10;;;;;;;1.30;1.10;;;;;;;;;;6279275;22;20525;-82
2021/08/01 13:06:37;;;;;;;2.00;1.30;;;;;;;;;;6250239;22;20165;-82
2021/08/01 13:09:06;;;;;;;1.52;1.02;;;;;;;;;;6277367;22;20425;-83
2021/08/01 13:11:36;;;;;;;1.92;1.13;;;;;;;;;;6275859;22;20024;-82
2021/08/01 13:14:06;;;;;;;2.40;1.30;;;;;;;;;;6275482;22;20024;-82
2021/08/01 13:16:47;;;;;;;2.42;2.10;;;;;;;;;;6275069;22;20222;-83
2021/08/01 13:19:15;;;;;;;1.42;1.33;;;;;;;;;;6248164;22;20028;-82
2021/08/01 13:21:41;;;;;;;1.60;1.50;;;;;;;;;;6246440;22;20284;-83
2021/08/01 13:24:16;;;;;;;2.13;1.15;;;;;;;;;;6250889;22;20223;-82
2021/08/01 13:26:58;;;;;;;2.08;1.17;;;;;;;;;;6250282;22;20050;-82
2021/08/01 13:29:26;;;;;;;2.70;1.30;;;;;;;;;;6251535;22;20306;-82
2021/08/01 13:31:53;;;;;;;1.67;1.08;;;;;;;;;;6253037;22;20034;-82
2021/08/01 13:34:22;;;;;;;1.80;1.50;;;;;;;;;;6280902;22;20063;-83
2021/08/01 13:36:49;;;;;;;2.17;1.38;;;;;;;;;;6257561;22;20055;-84
2021/08/01 13:39:19;;;;;;;1.73;1.52;;;;;;;;;;6295975;22;20019;-81
2021/08/01 13:42:09;;;;;;;2.53;1.60;;;;;;;;;;6268482;22;20039;-82
2021/08/01 13:45:00;;;;;;;2.03;1.83;;;;;;;;;;6250891;22;20075;-82
2021/08/01 13:47:32;;;;;;;2.40;2.20;;;;;;;;;;6228393;22;20046;-82
2021/08/01 13:50:00;;;;;;;3.55;2.58;;;;;;;;;;6249084;22;20024;-80
2021/08/01 13:52:27;;;;;;;3.35;3.05;;;;;;;;;;6249554;22;20031;-82
2021/08/01 13:54:58;;;;;;;6.85;3.22;;;;;;;;;;6276936;22;20020;-82
2021/08/01 13:57:25;;;;;;;3.00;2.45;;;;;;;;;;6279397;22;20027;-81
2021/08/01 13:59:55;;;;;;;3.05;2.38;;;;;;;;;;6276372;22;20061;-80
2021/08/01 14:02:26;;;;;;;2.53;2.33;;;;;;;;;;6275868;22;20023;-81
2021/08/01 14:04:53;;;;;;;5.22;2.60;;;;;;;;;;6283572;22;20027;-83
2021/08/01 14:07:20;;;;;;;5.57;2.67;;;;;;;;;;6279959;22;20488;-83
2021/08/01 14:09:47;;;;;;;4.13;2.40;;;;;;;;;;6257864;22;20030;-82
2021/08/01 14:12:14;;;;;;;3.53;2.50;;;;;;;;;;6276381;22;20030;-82
2021/08/01 14:14:41;;;;;;;2.72;2.47;;;;;;;;;;6258338;22;20028;-82
2021/08/01 14:17:17;;;;;;;4.53;2.50;;;;;;;;;;6277630;22;20055;-81
2021/08/01 14:19:44;;;;;;;;;;;;;;;;;;6251885;22;20086;-82
2021/08/01 14:22:10;;;;;;;3.35;1.95;;;;;;;;;;6295088;22;19935;-83
2021/08/01 14:24:38;;;;;;;3.05;1.98;;;;;;;;;;6291634;22;20083;-84
2021/08/01 14:27:05;;;;;;;1.55;1.42;;;;;;;;;;6257759;22;20020;-81
2021/08/01 14:29:38;;;;;;;2.25;1.75;;;;;;;;;;6254270;22;20034;-84
2021/08/01 14:32:12;;;;;;;2.00;1.55;;;;;;;;;;6276384;22;20028;-84
2021/08/01 14:34:40;;;;;;;2.47;1.77;;;;;;;;;;6246847;22;20420;-83
2021/08/01 14:37:08;;;;;;;4.15;1.65;;;;;;;;;;6263359;22;20028;-82
2021/08/01 14:39:38;;;;;;;5.15;1.30;;;;;;;;;;6265676;22;20106;-84
2021/08/01 14:42:06;;;;;;;2.35;1.60;;;;;;;;;;6263845;22;20075;-85